sensor_id;sensor_type;location;lat;lon;timestamp;pressure;altitude;pressure_sealevel;temperature;humidity
55010;BME280;40903;51.638;7.528;2022-09-30T00:01:34;100211.41;;;5.19;100.00
55010;BME280;40903;51.638;7.528;2022-09-30T00:04:00;100217.34;;;5.16;100.00
55010;BME280;40903;51.638;7.528;2022-09-30T00:06:27;100221.94;;;5.11;100.00
55010;BME280;40903;51.638;7.528;2022-09-30T00:08:54;100220.81;;;5.07;100.00
55010;BME280;40903;51.638;7.528;2022-09-30T00:11:22;100225.41;;;5.01;100.00
55010;BME280;40903;51.638;7.528;2022-09-30T00:13:50;100234.88;;;4.99;100.00
55010;BME280;40903;51.638;7.528;2022-09-30T00:16:17;100235.41;;;4.96;100.00
55010;BME280;40903;51.638;7.528;2022-09-30T00:18:43;100243.22;;;4.92;100.00
55010;BME280;40903;51.638;7.528;2022-09-30T00:21:09;100243.75;;;4.89;100.00
55010;BME280;40903;51.638;7.528;2022-09-30T00:23:36;100247.50;;;4.83;100.00
55010;BME280;40903;51.638;7.528;2022-09-30T00:26:07;100243.94;;;4.78;100.00
55010;BME280;40903;51.638;7.528;2022-09-30T00:28:33;100246.41;;;4.79;100.00
55010;BME280;40903;51.638;7.528;2022-09-30T00:31:04;100253.41;;;4.75;100.00
55010;BME280;40903;51.638;7.528;2022-09-30T00:33:30;100249.09;;;4.74;100.00
55010;BME280;40903;51.638;7.528;2022-09-30T00:35:56;100243.69;;;4.74;100.00
55010;BME280;40903;51.638;7.528;2022-09-30T00:38:21;100241.53;;;4.76;100.00
55010;BME280;40903;51.638;7.528;2022-09-30T00:40:47;100250.72;;;4.80;100.00
55010;BME280;40903;51.638;7.528;2022-09-30T00:43:16;100255.06;;;4.81;100.00
55010;BME280;40903;51.638;7.528;2022-09-30T00:45:59;100260.44;;;4.81;100.00
55010;BME280;40903;51.638;7.528;2022-09-30T00:48:30;100248.03;;;4.80;100.00
55010;BME280;40903;51.638;7.528;2022-09-30T00:51:00;100245.84;;;4.77;100.00
55010;BME280;40903;51.638;7.528;2022-09-30T00:53:35;100247.19;;;4.75;100.00
55010;BME280;40903;51.638;7.528;2022-09-30T00:56:09;100248.25;;;4.74;100.00
55010;BME280;40903;51.638;7.528;2022-09-30T00:58:55;100243.13;;;4.72;100.00
55010;BME280;40903;51.638;7.528;2022-09-30T01:01:24;100246.91;;;4.71;100.00
55010;BME280;40903;51.638;7.528;2022-09-30T01:03:57;100250.66;;;4.70;100.00
55010;BME280;40903;51.638;7.528;2022-09-30T01:06:24;100250.41;;;4.67;100.00
55010;BME280;40903;51.638;7.528;2022-09-30T01:08:50;100249.03;;;4.64;100.00
55010;BME280;40903;51.638;7.528;2022-09-30T01:11:16;100241.19;;;4.63;100.00
55010;BME280;40903;51.638;7.528;2022-09-30T01:13:44;100258.22;;;4.63;100.00
55010;BME280;40903;51.638;7.528;2022-09-30T01:19:43;100251.19;;;4.62;100.00
55010;BME280;40903;51.638;7.528;2022-09-30T01:41:12;100257.38;;;4.63;100.00
55010;BME280;40903;51.638;7.528;2022-09-30T01:48:48;100259.00;;;4.59;100.00
55010;BME280;40903;51.638;7.528;2022-09-30T01:53:55;100260.31;;;4.51;100.00
55010;BME280;40903;51.638;7.528;2022-09-30T01:56:35;100257.84;;;4.50;100.00
55010;BME280;40903;51.638;7.528;2022-09-30T01:59:15;100264.31;;;4.49;100.00
55010;BME280;40903;51.638;7.528;2022-09-30T02:01:50;100268.94;;;4.48;100.00
55010;BME280;40903;51.638;7.528;2022-09-30T02:04:23;100265.13;;;4.44;100.00
55010;BME280;40903;51.638;7.528;2022-09-30T02:06:53;100261.31;;;4.40;100.00
55010;BME280;40903;51.638;7.528;2022-09-30T02:09:34;100266.16;;;4.38;100.00
55010;BME280;40903;51.638;7.528;2022-09-30T02:12:04;100263.75;;;4.37;100.00
55010;BME280;40903;51.638;7.528;2022-09-30T02:14:38;100263.75;;;4.37;100.00
55010;BME280;40903;51.638;7.528;2022-09-30T02:17:09;100261.84;;;4.37;100.00
55010;BME280;40903;51.638;7.528;2022-09-30T02:19:43;100272.91;;;4.36;100.00
55010;BME280;40903;51.638;7.528;2022-09-30T02:22:20;100274.75;;;4.30;100.00
55010;BME280;40903;51.638;7.528;2022-09-30T02:24:51;100268.81;;;4.28;100.00
55010;BME280;40903;51.638;7.528;2022-09-30T02:27:33;100269.06;;;4.27;100.00
55010;BME280;40903;51.638;7.528;2022-09-30T02:30:07;100269.31;;;4.25;100.00
55010;BME280;40903;51.638;7.528;2022-09-30T02:33:00;100268.75;;;4.23;100.00
55010;BME280;40903;51.638;7.528;2022-09-30T02:35:35;100263.91;;;4.20;100.00
55010;BME280;40903;51.638;7.528;2022-09-30T02:38:06;100277.34;;;4.15;100.00
55010;BME280;40903;51.638;7.528;2022-09-30T02:43:06;100271.91;;;4.10;100.00
55010;BME280;40903;51.638;7.528;2022-09-30T02:45:42;100279.19;;;4.10;100.00
55010;BME280;40903;51.638;7.528;2022-09-30T02:50:51;100280.81;;;4.11;100.00
55010;BME280;40903;51.638;7.528;2022-09-30T02:53:37;100283.25;;;4.12;100.00
55010;BME280;40903;51.638;7.528;2022-09-30T02:56:12;100285.44;;;4.15;100.00
55010;BME280;40903;51.638;7.528;2022-09-30T02:58:40;100280.84;;;4.16;100.00
55010;BME280;40903;51.638;7.528;2022-09-30T03:01:09;100285.44;;;4.15;100.00
55010;BME280;40903;51.638;7.528;2022-09-30T03:03:41;100276.00;;;4.18;100.00
55010;BME280;40903;51.638;7.528;2022-09-30T03:06:08;100278.97;;;4.16;100.00
55010;BME280;40903;51.638;7.528;2022-09-30T03:08:34;100283.25;;;4.12;100.00
55010;BME280;40903;51.638;7.528;2022-09-30T03:11:00;100289.72;;;4.11;100.00
55010;BME280;40903;51.638;7.528;2022-09-30T03:24:24;100303.66;;;3.98;100.00
55010;BME280;40903;51.638;7.528;2022-09-30T03:40:48;100311.16;;;3.91;100.00
55010;BME280;40903;51.638;7.528;2022-09-30T03:46:20;100307.00;;;3.79;100.00
55010;BME280;40903;51.638;7.528;2022-09-30T03:48:52;100310.69;;;3.73;100.00
55010;BME280;40903;51.638;7.528;2022-09-30T03:51:19;100312.84;;;3.71;100.00
55010;BME280;40903;51.638;7.528;2022-09-30T03:53:45;100322.81;;;3.71;100.00
55010;BME280;40903;51.638;7.528;2022-09-30T03:56:11;100320.38;;;3.69;100.00
55010;BME280;40903;51.638;7.528;2022-09-30T03:58:41;100322.00;;;3.70;100.00
55010;BME280;40903;51.638;7.528;2022-09-30T04:01:15;100325.75;;;3.69;100.00
55010;BME280;40903;51.638;7.528;2022-09-30T04:03:41;100322.81;;;3.71;100.00
55010;BME280;40903;51.638;7.528;2022-09-30T04:06:09;100330.09;;;3.70;100.00
55010;BME280;40903;51.638;7.528;2022-09-30T04:08:36;100334.69;;;3.70;100.00
55010;BME280;40903;51.638;7.528;2022-09-30T04:11:03;100335.16;;;3.67;100.00
55010;BME280;40903;51.638;7.528;2022-09-30T04:13:28;100336.25;;;3.66;100.00
55010;BME280;40903;51.638;7.528;2022-09-30T04:15:54;100348.09;;;3.65;100.00
55010;BME280;40903;51.638;7.528;2022-09-30T04:18:19;100350.19;;;3.58;100.00
55010;BME280;40903;51.638;7.528;2022-09-30T04:20:44;100353.63;;;3.53;100.00
55010;BME280;40903;51.638;7.528;2022-09-30T04:23:10;100360.84;;;3.48;100.00
55010;BME280;40903;51.638;7.528;2022-09-30T04:25:35;100357.59;;;3.46;100.00
55010;BME280;40903;51.638;7.528;2022-09-30T04:28:00;100358.66;;;3.45;100.00
55010;BME280;40903;51.638;7.528;2022-09-30T04:30:26;100353.50;;;3.43;100.00
55010;BME280;40903;51.638;7.528;2022-09-30T04:32:51;100360.25;;;3.41;100.00
55010;BME280;40903;51.638;7.528;2022-09-30T04:35:16;100354.84;;;3.41;100.00
55010;BME280;40903;51.638;7.528;2022-09-30T04:37:43;100354.84;;;3.41;100.00
55010;BME280;40903;51.638;7.528;2022-09-30T04:40:09;100358.34;;;3.41;100.00
55010;BME280;40903;51.638;7.528;2022-09-30T04:42:37;100364.81;;;3.40;100.00
55010;BME280;40903;51.638;7.528;2022-09-30T04:45:02;100369.88;;;3.37;100.00
55010;BME280;40903;51.638;7.528;2022-09-30T04:47:28;100377.41;;;3.35;100.00
55010;BME280;40903;51.638;7.528;2022-09-30T04:49:54;100373.03;;;3.29;100.00
55010;BME280;40903;51.638;7.528;2022-09-30T04:52:19;100383.47;;;3.25;100.00
55010;BME280;40903;51.638;7.528;2022-09-30T04:54:45;100384.50;;;3.19;100.00
55010;BME280;40903;51.638;7.528;2022-09-30T04:57:10;100383.09;;;3.17;100.00
55010;BME280;40903;51.638;7.528;2022-09-30T04:59:36;100376.09;;;3.16;100.00
55010;BME280;40903;51.638;7.528;2022-09-30T05:02:01;100385.81;;;3.17;100.00
55010;BME280;40903;51.638;7.528;2022-09-30T05:04:26;100387.19;;;3.19;100.00
55010;BME280;40903;51.638;7.528;2022-09-30T05:06:52;100378.28;;;3.19;100.00
55010;BME280;40903;51.638;7.528;2022-09-30T05:09:17;100387.19;;;3.19;100.00
55010;BME280;40903;51.638;7.528;2022-09-30T05:11:42;100388.53;;;3.22;100.00
55010;BME280;40903;51.638;7.528;2022-09-30T05:14:07;100384.78;;;3.23;100.00
55010;BME280;40903;51.638;7.528;2022-09-30T05:16:33;100391.56;;;3.25;100.00
55010;BME280;40903;51.638;7.528;2022-09-30T05:18:58;100391.31;;;3.27;100.00
55010;BME280;40903;51.638;7.528;2022-09-30T05:21:24;100392.94;;;3.28;100.00
55010;BME280;40903;51.638;7.528;2022-09-30T05:23:49;100396.22;;;3.30;100.00
55010;BME280;40903;51.638;7.528;2022-09-30T05:26:14;100397.28;;;3.29;100.00
55010;BME280;40903;51.638;7.528;2022-09-30T05:28:41;100401.59;;;3.30;100.00
55010;BME280;40903;51.638;7.528;2022-09-30T05:31:06;100402.16;;;3.32;100.00
55010;BME280;40903;51.638;7.528;2022-09-30T05:33:32;100405.41;;;3.34;100.00
55010;BME280;40903;51.638;7.528;2022-09-30T05:36:03;100399.78;;;3.35;100.00
55010;BME280;40903;51.638;7.528;2022-09-30T05:38:28;100405.97;;;3.36;100.00
55010;BME280;40903;51.638;7.528;2022-09-30T05:40:54;100408.66;;;3.36;100.00
55010;BME280;40903;51.638;7.528;2022-09-30T05:43:20;100409.16;;;3.33;100.00
55010;BME280;40903;51.638;7.528;2022-09-30T05:45:55;100408.38;;;3.32;100.00
55010;BME280;40903;51.638;7.528;2022-09-30T05:48:22;100411.63;;;3.34;100.00
55010;BME280;40903;51.638;7.528;2022-09-30T05:50:48;100411.91;;;3.38;100.00
55010;BME280;40903;51.638;7.528;2022-09-30T05:53:15;100417.91;;;3.40;100.00
55010;BME280;40903;51.638;7.528;2022-09-30T05:55:44;100413.63;;;3.44;100.00
55010;BME280;40903;51.638;7.528;2022-09-30T05:58:10;100420.97;;;3.48;100.00
55010;BME280;40903;51.638;7.528;2022-09-30T06:00:39;100436.88;;;3.50;100.00
55010;BME280;40903;51.638;7.528;2022-09-30T06:03:04;100439.88;;;3.53;100.00
55010;BME280;40903;51.638;7.528;2022-09-30T06:05:30;100436.44;;;3.58;100.00
55010;BME280;40903;51.638;7.528;2022-09-30T06:07:55;100451.88;;;3.62;100.00
55010;BME280;40903;51.638;7.528;2022-09-30T06:10:20;100453.53;;;3.68;100.00
55010;BME280;40903;51.638;7.528;2022-09-30T06:12:46;100450.16;;;3.78;100.00
55010;BME280;40903;51.638;7.528;2022-09-30T06:15:12;100454.56;;;3.83;100.00
55010;BME280;40903;51.638;7.528;2022-09-30T06:17:37;100448.13;;;3.89;100.00
55010;BME280;40903;51.638;7.528;2022-09-30T06:20:03;100446.63;;;3.98;100.00
55010;BME280;40903;51.638;7.528;2022-09-30T06:22:31;100443.44;;;4.06;100.00
55010;BME280;40903;51.638;7.528;2022-09-30T06:24:57;100431.38;;;4.14;100.00
55010;BME280;40903;51.638;7.528;2022-09-30T06:27:24;100440.91;;;4.21;100.00
55010;BME280;40903;51.638;7.528;2022-09-30T06:29:49;100439.09;;;4.32;100.00
55010;BME280;40903;51.638;7.528;2022-09-30T06:32:14;100450.81;;;4.42;100.00
55010;BME280;40903;51.638;7.528;2022-09-30T06:34:40;100453.88;;;4.51;100.00
55010;BME280;40903;51.638;7.528;2022-09-30T06:37:06;100459.09;;;4.62;100.00
55010;BME280;40903;51.638;7.528;2022-09-30T06:39:31;100462.69;;;4.73;100.00
55010;BME280;40903;51.638;7.528;2022-09-30T06:41:56;100462.50;;;4.84;100.00
55010;BME280;40903;51.638;7.528;2022-09-30T06:44:22;100461.50;;;4.95;100.00
55010;BME280;40903;51.638;7.528;2022-09-30T06:46:47;100466.47;;;5.08;100.00
55010;BME280;40903;51.638;7.528;2022-09-30T06:49:12;100467.09;;;5.20;100.00
55010;BME280;40903;51.638;7.528;2022-09-30T06:51:37;100472.56;;;5.35;100.00
55010;BME280;40903;51.638;7.528;2022-09-30T06:54:03;100473.75;;;5.49;100.00
55010;BME280;40903;51.638;7.528;2022-09-30T06:56:28;100478.13;;;5.65;100.00
55010;BME280;40903;51.638;7.528;2022-09-30T06:58:54;100484.97;;;5.82;100.00
55010;BME280;40903;51.638;7.528;2022-09-30T07:01:21;100475.03;;;5.98;100.00
55010;BME280;40903;51.638;7.528;2022-09-30T07:03:48;100471.28;;;6.14;100.00
55010;BME280;40903;51.638;7.528;2022-09-30T07:06:14;100479.16;;;6.30;100.00
55010;BME280;40903;51.638;7.528;2022-09-30T07:08:40;100480.28;;;6.44;100.00
55010;BME280;40903;51.638;7.528;2022-09-30T07:11:10;100481.13;;;6.60;100.00
55010;BME280;40903;51.638;7.528;2022-09-30T07:13:40;100473.00;;;6.75;100.00
55010;BME280;40903;51.638;7.528;2022-09-30T07:16:08;100475.69;;;6.90;100.00
55010;BME280;40903;51.638;7.528;2022-09-30T07:18:36;100479.47;;;7.04;100.00
55010;BME280;40903;51.638;7.528;2022-09-30T07:21:01;100478.13;;;7.21;100.00
55010;BME280;40903;51.638;7.528;2022-09-30T07:23:26;100487.84;;;7.37;100.00
55010;BME280;40903;51.638;7.528;2022-09-30T07:25:56;100500.53;;;7.52;100.00
55010;BME280;40903;51.638;7.528;2022-09-30T07:28:24;100498.63;;;7.67;100.00
55010;BME280;40903;51.638;7.528;2022-09-30T07:30:55;100491.22;;;7.82;100.00
55010;BME280;40903;51.638;7.528;2022-09-30T07:33:21;100497.09;;;7.99;100.00
55010;BME280;40903;51.638;7.528;2022-09-30T07:35:55;100496.75;;;8.16;100.00
55010;BME280;40903;51.638;7.528;2022-09-30T07:38:23;100500.22;;;8.31;100.00
55010;BME280;40903;51.638;7.528;2022-09-30T07:41:00;100490.34;;;8.45;100.00
55010;BME280;40903;51.638;7.528;2022-09-30T07:43:27;100495.69;;;8.65;100.00
55010;BME280;40903;51.638;7.528;2022-09-30T07:46:19;100495.50;;;8.85;100.00
55010;BME280;40903;51.638;7.528;2022-09-30T07:48:47;100500.25;;;9.03;100.00
55010;BME280;40903;51.638;7.528;2022-09-30T07:53:57;100510.25;;;9.41;100.00
55010;BME280;40903;51.638;7.528;2022-09-30T07:56:24;100513.84;;;9.60;100.00
55010;BME280;40903;51.638;7.528;2022-09-30T07:58:56;100507.88;;;9.81;100.00
55010;BME280;40903;51.638;7.528;2022-09-30T08:01:24;100511.22;;;10.02;100.00
55010;BME280;40903;51.638;7.528;2022-09-30T08:03:55;100509.91;;;10.18;100.00
55010;BME280;40903;51.638;7.528;2022-09-30T08:06:21;100510.00;;;10.31;100.00
55010;BME280;40903;51.638;7.528;2022-09-30T08:08:49;100512.50;;;10.46;100.00
55010;BME280;40903;51.638;7.528;2022-09-30T08:11:16;100509.56;;;10.61;100.00
55010;BME280;40903;51.638;7.528;2022-09-30T08:13:41;100508.22;;;10.77;99.04
55010;BME280;40903;51.638;7.528;2022-09-30T08:16:07;100506.69;;;10.90;98.23
55010;BME280;40903;51.638;7.528;2022-09-30T08:18:32;100505.59;;;11.04;97.51
55010;BME280;40903;51.638;7.528;2022-09-30T08:21:02;100506.69;;;11.22;97.47
55010;BME280;40903;51.638;7.528;2022-09-30T08:23:29;100514.50;;;11.42;98.50
55010;BME280;40903;51.638;7.528;2022-09-30T08:26:02;100511.22;;;11.58;93.95
55010;BME280;40903;51.638;7.528;2022-09-30T08:28:27;100511.53;;;11.70;89.61
55010;BME280;40903;51.638;7.528;2022-09-30T08:31:20;100504.16;;;11.84;89.02
55010;BME280;40903;51.638;7.528;2022-09-30T08:33:47;100507.69;;;11.98;85.93
55010;BME280;40903;51.638;7.528;2022-09-30T08:36:15;100505.53;;;12.08;84.94
55010;BME280;40903;51.638;7.528;2022-09-30T08:38:41;100508.50;;;12.25;88.86
55010;BME280;40903;51.638;7.528;2022-09-30T08:46:58;100508.53;;;12.83;84.39
55010;BME280;40903;51.638;7.528;2022-09-30T08:49:32;100520.47;;;13.00;81.45
55010;BME280;40903;51.638;7.528;2022-09-30T08:52:03;100514.28;;;13.17;82.85
55010;BME280;40903;51.638;7.528;2022-09-30T08:54:35;100516.00;;;13.35;80.63
55010;BME280;40903;51.638;7.528;2022-09-30T08:57:02;100519.47;;;13.49;77.68
55010;BME280;40903;51.638;7.528;2022-09-30T08:59:35;100520.38;;;13.66;80.28
55010;BME280;40903;51.638;7.528;2022-09-30T09:02:20;100512.22;;;13.83;80.16
55010;BME280;40903;51.638;7.528;2022-09-30T09:04:50;100513.09;;;14.00;78.45
55010;BME280;40903;51.638;7.528;2022-09-30T09:07:44;100513.63;;;14.11;74.59
55010;BME280;40903;51.638;7.528;2022-09-30T09:10:25;100511.25;;;14.26;74.10
55010;BME280;40903;51.638;7.528;2022-09-30T09:13:02;100516.94;;;14.38;74.83
55010;BME280;40903;51.638;7.528;2022-09-30T09:21:14;100517.00;;;14.89;69.41
55010;BME280;40903;51.638;7.528;2022-09-30T09:23:43;100515.69;;;15.04;68.22
55010;BME280;40903;51.638;7.528;2022-09-30T09:26:11;100516.97;;;15.15;68.08
55010;BME280;40903;51.638;7.528;2022-09-30T09:28:50;100514.53;;;15.30;68.75
55010;BME280;40903;51.638;7.528;2022-09-30T09:31:21;100510.47;;;15.45;70.28
55010;BME280;40903;51.638;7.528;2022-09-30T09:33:46;100516.25;;;15.60;70.20
55010;BME280;40903;51.638;7.528;2022-09-30T09:41:38;100515.13;;;15.98;67.87
55010;BME280;40903;51.638;7.528;2022-09-30T09:44:26;100512.81;;;16.09;65.70
55010;BME280;40903;51.638;7.528;2022-09-30T09:47:07;100516.16;;;16.23;65.46
55010;BME280;40903;51.638;7.528;2022-09-30T09:49:46;100512.69;;;16.34;63.98
55010;BME280;40903;51.638;7.528;2022-09-30T09:52:36;100510.56;;;16.40;64.64
55010;BME280;40903;51.638;7.528;2022-09-30T09:55:05;100522.19;;;16.45;61.23
55010;BME280;40903;51.638;7.528;2022-09-30T09:57:30;100508.22;;;16.50;60.68
55010;BME280;40903;51.638;7.528;2022-09-30T10:00:11;100511.44;;;16.52;58.91
55010;BME280;40903;51.638;7.528;2022-09-30T10:03:14;100508.56;;;16.49;61.45
55010;BME280;40903;51.638;7.528;2022-09-30T10:05:45;100512.69;;;16.63;64.71
55010;BME280;40903;51.638;7.528;2022-09-30T10:08:17;100519.06;;;16.76;60.15
55010;BME280;40903;51.638;7.528;2022-09-30T10:10:50;100517.50;;;16.87;59.03
55010;BME280;40903;51.638;7.528;2022-09-30T10:13:22;100506.88;;;16.97;61.14
55010;BME280;40903;51.638;7.528;2022-09-30T10:15:51;100512.44;;;17.09;60.30
55010;BME280;40903;51.638;7.528;2022-09-30T10:18:26;100508.00;;;17.17;60.42
55010;BME280;40903;51.638;7.528;2022-09-30T10:21:23;100507.56;;;17.27;61.31
55010;BME280;40903;51.638;7.528;2022-09-30T10:23:48;100508.66;;;17.34;60.33
55010;BME280;40903;51.638;7.528;2022-09-30T10:29:20;100519.34;;;17.68;57.73
55010;BME280;40903;51.638;7.528;2022-09-30T10:31:49;100512.56;;;17.78;57.19
55010;BME280;40903;51.638;7.528;2022-09-30T10:34:26;100509.44;;;17.67;56.61
55010;BME280;40903;51.638;7.528;2022-09-30T10:36:54;100506.13;;;17.74;56.34
55010;BME280;40903;51.638;7.528;2022-09-30T10:39:24;100514.88;;;17.88;58.02
55010;BME280;40903;51.638;7.528;2022-09-30T10:42:08;100509.47;;;18.03;56.28
55010;BME280;40903;51.638;7.528;2022-09-30T10:45:07;100497.75;;;18.18;57.63
55010;BME280;40903;51.638;7.528;2022-09-30T10:47:45;100500.09;;;18.28;54.13
55010;BME280;40903;51.638;7.528;2022-09-30T10:50:14;100505.56;;;18.16;52.25
55010;BME280;40903;51.638;7.528;2022-09-30T10:52:56;100498.91;;;18.17;52.17
55010;BME280;40903;51.638;7.528;2022-09-30T10:55:41;100502.03;;;18.27;55.04
55010;BME280;40903;51.638;7.528;2022-09-30T10:58:24;100484.97;;;18.01;53.31
55010;BME280;40903;51.638;7.528;2022-09-30T11:01:11;100497.84;;;17.85;54.14
55010;BME280;40903;51.638;7.528;2022-09-30T11:03:54;100506.47;;;17.72;53.92
55010;BME280;40903;51.638;7.528;2022-09-30T11:06:21;100502.38;;;17.46;54.04
55010;BME280;40903;51.638;7.528;2022-09-30T11:09:00;100513.75;;;17.44;54.96
55010;BME280;40903;51.638;7.528;2022-09-30T11:11:34;100508.28;;;17.56;55.57
55010;BME280;40903;51.638;7.528;2022-09-30T11:14:16;100504.22;;;17.54;52.61
55010;BME280;40903;51.638;7.528;2022-09-30T11:19:51;100518.47;;;17.44;52.82
55010;BME280;40903;51.638;7.528;2022-09-30T11:25:02;100527.00;;;16.98;52.64
55010;BME280;40903;51.638;7.528;2022-09-30T11:30:32;100521.53;;;16.89;54.39
55010;BME280;40903;51.638;7.528;2022-09-30T11:33:24;100521.25;;;17.03;54.67
55010;BME280;40903;51.638;7.528;2022-09-30T11:36:23;100515.66;;;17.32;54.99
55010;BME280;40903;51.638;7.528;2022-09-30T11:39:44;100511.63;;;17.62;55.59
55010;BME280;40903;51.638;7.528;2022-09-30T11:44:56;100509.69;;;18.22;52.81
55010;BME280;40903;51.638;7.528;2022-09-30T11:50:25;100509.69;;;18.22;53.73
55010;BME280;40903;51.638;7.528;2022-09-30T11:53:08;100517.19;;;18.21;52.73
55010;BME280;40903;51.638;7.528;2022-09-30T11:55:48;100522.81;;;18.25;52.81
55010;BME280;40903;51.638;7.528;2022-09-30T11:58:24;100509.38;;;18.23;52.01
55010;BME280;40903;51.638;7.528;2022-09-30T12:00:56;100500.38;;;18.14;52.31
55010;BME280;40903;51.638;7.528;2022-09-30T12:03:32;100513.25;;;17.86;51.66
55010;BME280;40903;51.638;7.528;2022-09-30T12:06:02;100516.31;;;17.61;51.02
55010;BME280;40903;51.638;7.528;2022-09-30T12:08:35;100512.59;;;17.45;54.26
55010;BME280;40903;51.638;7.528;2022-09-30T12:11:13;100522.03;;;17.44;53.52
55010;BME280;40903;51.638;7.528;2022-09-30T12:13:51;100518.66;;;17.39;52.86
55010;BME280;40903;51.638;7.528;2022-09-30T12:16:22;100523.31;;;17.26;52.44
55010;BME280;40903;51.638;7.528;2022-09-30T12:18:52;100513.22;;;17.30;54.34
55010;BME280;40903;51.638;7.528;2022-09-30T12:21:25;100509.16;;;17.48;51.98
55010;BME280;40903;51.638;7.528;2022-09-30T12:23:57;100500.25;;;17.75;50.19
55010;BME280;40903;51.638;7.528;2022-09-30T12:26:24;100497.63;;;17.79;51.52
55010;BME280;40903;51.638;7.528;2022-09-30T12:29:04;100496.81;;;17.78;51.11
55010;BME280;40903;51.638;7.528;2022-09-30T12:32:03;100500.16;;;17.95;49.49
55010;BME280;40903;51.638;7.528;2022-09-30T12:40:24;100467.06;;;18.19;49.53
55010;BME280;40903;51.638;7.528;2022-09-30T12:43:14;100463.47;;;18.43;50.24
55010;BME280;40903;51.638;7.528;2022-09-30T12:46:00;100472.66;;;18.59;47.52
55010;BME280;40903;51.638;7.528;2022-09-30T12:48:38;100478.03;;;18.67;47.86
55010;BME280;40903;51.638;7.528;2022-09-30T12:51:05;100483.91;;;18.54;47.21
55010;BME280;40903;51.638;7.528;2022-09-30T12:53:33;100477.16;;;18.15;46.00
55010;BME280;40903;51.638;7.528;2022-09-30T12:56:07;100461.88;;;18.18;50.00
55010;BME280;40903;51.638;7.528;2022-09-30T12:58:43;100471.31;;;18.29;47.56
55010;BME280;40903;51.638;7.528;2022-09-30T13:01:14;100468.06;;;18.39;45.63
55010;BME280;40903;51.638;7.528;2022-09-30T13:06:21;100457.97;;;18.43;45.38
55010;BME280;40903;51.638;7.528;2022-09-30T13:09:05;100447.22;;;18.53;46.43
55010;BME280;40903;51.638;7.528;2022-09-30T13:27:42;100427.66;;;18.86;45.90
55010;BME280;40903;51.638;7.528;2022-09-30T13:32:39;100420.63;;;18.88;46.54
55010;BME280;40903;51.638;7.528;2022-09-30T13:38:15;100436.47;;;18.91;44.77
55010;BME280;40903;51.638;7.528;2022-09-30T13:40:52;100429.28;;;18.87;43.42
55010;BME280;40903;51.638;7.528;2022-09-30T13:43:24;100420.16;;;18.86;43.77
55010;BME280;40903;51.638;7.528;2022-09-30T13:45:53;100419.66;;;18.96;45.79
55010;BME280;40903;51.638;7.528;2022-09-30T13:48:41;100424.31;;;19.08;44.66
55010;BME280;40903;51.638;7.528;2022-09-30T13:51:14;100432.44;;;19.01;42.69
55010;BME280;40903;51.638;7.528;2022-09-30T13:53:47;100434.84;;;19.02;44.01
55010;BME280;40903;51.638;7.528;2022-09-30T13:56:24;100435.75;;;18.79;43.51
55010;BME280;40903;51.638;7.528;2022-09-30T14:02:04;100430.63;;;18.65;43.66
55010;BME280;40903;51.638;7.528;2022-09-30T14:04:42;100435.00;;;18.66;44.56
55010;BME280;40903;51.638;7.528;2022-09-30T14:07:15;100428.47;;;18.59;40.98
55010;BME280;40903;51.638;7.528;2022-09-30T14:10:55;100427.63;;;18.58;42.92
55010;BME280;40903;51.638;7.528;2022-09-30T14:19:00;100421.50;;;18.37;45.31
55010;BME280;40903;51.638;7.528;2022-09-30T14:21:47;100424.50;;;18.20;42.87
55010;BME280;40903;51.638;7.528;2022-09-30T14:24:20;100410.59;;;18.17;44.13
55010;BME280;40903;51.638;7.528;2022-09-30T14:26:58;100413.69;;;18.27;45.55
55010;BME280;40903;51.638;7.528;2022-09-30T14:29:51;100413.22;;;18.25;44.62
55010;BME280;40903;51.638;7.528;2022-09-30T14:32:25;100406.78;;;18.33;45.32
55010;BME280;40903;51.638;7.528;2022-09-30T14:34:52;100404.09;;;18.25;43.80
55010;BME280;40903;51.638;7.528;2022-09-30T14:37:26;100403.91;;;18.18;44.52
55010;BME280;40903;51.638;7.528;2022-09-30T14:39:53;100392.16;;;18.21;46.21
55010;BME280;40903;51.638;7.528;2022-09-30T14:42:39;100396.53;;;18.22;45.42
55010;BME280;40903;51.638;7.528;2022-09-30T14:45:05;100401.25;;;18.21;45.46
55010;BME280;40903;51.638;7.528;2022-09-30T14:47:43;100394.28;;;18.12;43.54
55010;BME280;40903;51.638;7.528;2022-09-30T14:50:13;100398.41;;;18.06;43.86
55010;BME280;40903;51.638;7.528;2022-09-30T14:52:43;100376.22;;;18.02;45.74
55010;BME280;40903;51.638;7.528;2022-09-30T14:55:28;100378.50;;;18.00;44.38
55010;BME280;40903;51.638;7.528;2022-09-30T15:01:04;100375.34;;;17.75;47.11
55010;BME280;40903;51.638;7.528;2022-09-30T15:03:33;100379.59;;;17.72;46.23
55010;BME280;40903;51.638;7.528;2022-09-30T15:05:59;100376.63;;;17.53;48.00
